createdAt,value
2019-01-20T00:00:19.339Z,-5.20
2019-01-20T00:02:49.042Z,-5.20
2019-01-20T00:05:18.250Z,-5.20
2019-01-20T00:07:47.205Z,-5.20
2019-01-20T00:10:16.186Z,-5.20
2019-01-20T00:12:45.136Z,-5.10
2019-01-20T00:15:17.448Z,-5.20
2019-01-20T00:17:46.335Z,-5.20
2019-01-20T00:20:15.375Z,-5.20
2019-01-20T00:22:44.336Z,-5.30
2019-01-20T00:25:13.613Z,-5.30
2019-01-20T00:27:42.509Z,-5.40
2019-01-20T00:30:16.697Z,-5.40
2019-01-20T00:32:45.987Z,-5.40
2019-01-20T00:35:15.864Z,-5.30
2019-01-20T00:37:45.386Z,-5.30
2019-01-20T00:40:16.383Z,-5.30
2019-01-20T00:42:45.983Z,-5.40
2019-01-20T00:45:17.072Z,-5.50
2019-01-20T00:47:45.941Z,-5.40
2019-01-20T00:50:16.811Z,-5.40
2019-01-20T00:52:45.955Z,-5.50
2019-01-20T00:55:16.910Z,-5.50
2019-01-20T00:57:46.018Z,-5.60
2019-01-20T01:00:27.062Z,-5.60
2019-01-20T01:02:56.176Z,-5.60
2019-01-20T01:05:25.302Z,-5.70
2019-01-20T01:07:54.288Z,-5.70
2019-01-20T01:10:23.180Z,-5.70
2019-01-20T01:12:52.600Z,-5.70
2019-01-20T01:15:21.678Z,-5.60
2019-01-20T01:17:51.705Z,-5.60
2019-01-20T01:20:20.801Z,-5.60
2019-01-20T01:22:49.986Z,-5.70
2019-01-20T01:25:19.038Z,-5.70
2019-01-20T01:27:47.966Z,-5.80
2019-01-20T01:30:19.348Z,-5.80
2019-01-20T01:32:49.178Z,-5.90
2019-01-20T01:35:18.181Z,-5.90
2019-01-20T01:37:47.074Z,-5.90
2019-01-20T01:40:17.542Z,-5.90
2019-01-20T01:42:46.599Z,-5.90
2019-01-20T01:45:18.088Z,-5.90
2019-01-20T01:47:47.032Z,-5.90
2019-01-20T01:50:17.175Z,-5.90
2019-01-20T01:52:46.080Z,-5.90
2019-01-20T01:55:14.997Z,-5.80
2019-01-20T01:57:43.897Z,-5.90
2019-01-20T02:00:15.669Z,-5.90
2019-01-20T02:02:45.053Z,-5.90
2019-01-20T02:05:14.039Z,-5.90
2019-01-20T02:07:43.025Z,-5.90
2019-01-20T02:10:17.216Z,-5.90
2019-01-20T02:12:46.331Z,-6.00
2019-01-20T02:15:17.531Z,-6.00
2019-01-20T02:17:47.069Z,-5.90
2019-01-20T02:20:20.931Z,-5.90
2019-01-20T02:22:49.859Z,-6.00
2019-01-20T02:25:18.821Z,-6.00
2019-01-20T02:27:47.704Z,-6.00
2019-01-20T02:30:21.835Z,-6.00
2019-01-20T02:32:50.786Z,-6.00
2019-01-20T02:35:19.922Z,-6.00
2019-01-20T02:37:48.919Z,-6.00
2019-01-20T02:40:18.235Z,-6.10
2019-01-20T02:42:47.142Z,-6.10
2019-01-20T02:45:16.883Z,-6.20
2019-01-20T02:47:45.912Z,-6.20
2019-01-20T02:50:16.918Z,-6.20
2019-01-20T02:52:46.166Z,-6.30
2019-01-20T02:55:15.252Z,-6.30
2019-01-20T02:57:44.173Z,-6.40
2019-01-20T03:00:18.694Z,-6.30
2019-01-20T03:02:47.588Z,-6.30
2019-01-20T03:05:17.206Z,-6.30
2019-01-20T03:07:46.159Z,-6.40
2019-01-20T03:10:15.582Z,-6.40
2019-01-20T03:12:44.453Z,-6.50
2019-01-20T03:15:15.139Z,-6.50
2019-01-20T03:17:44.034Z,-6.60
2019-01-20T03:20:15.795Z,-6.60
2019-01-20T03:22:44.816Z,-6.60
2019-01-20T03:25:16.004Z,-6.60
2019-01-20T03:27:44.985Z,-6.70
2019-01-20T03:30:16.745Z,-6.60
2019-01-20T03:32:45.640Z,-6.70
2019-01-20T03:35:18.380Z,-6.80
2019-01-20T03:37:47.428Z,-6.90
2019-01-20T03:40:19.348Z,-6.90
2019-01-20T03:42:48.428Z,-6.90
2019-01-20T03:45:18.797Z,-6.80
2019-01-20T03:47:47.784Z,-6.90
2019-01-20T03:50:17.698Z,-6.90
2019-01-20T03:52:46.970Z,-6.90
2019-01-20T03:55:18.119Z,-6.90
2019-01-20T03:57:47.141Z,-6.90
2019-01-20T04:00:23.142Z,-6.90
2019-01-20T04:02:54.137Z,-6.80
2019-01-20T04:05:23.039Z,-6.90
2019-01-20T04:07:53.103Z,-6.90
2019-01-20T04:10:22.094Z,-6.90
2019-01-20T04:12:50.979Z,-7.00
2019-01-20T04:15:19.949Z,-7.00
2019-01-20T04:17:48.875Z,-7.10
2019-01-20T04:20:17.924Z,-7.00
2019-01-20T04:22:46.866Z,-7.00
2019-01-20T04:25:17.811Z,-7.10
2019-01-20T04:27:46.700Z,-7.00
2019-01-20T04:30:19.735Z,-7.00
2019-01-20T04:32:49.218Z,-7.00
2019-01-20T04:35:18.174Z,-7.00
2019-01-20T04:37:47.176Z,-7.10
2019-01-20T04:40:18.478Z,-7.20
2019-01-20T04:42:47.377Z,-7.30
2019-01-20T04:45:16.329Z,-7.30
2019-01-20T04:47:45.198Z,-7.30
2019-01-20T04:50:16.675Z,-7.30
2019-01-20T04:52:45.641Z,-7.40
2019-01-20T04:55:15.638Z,-7.50
2019-01-20T04:57:46.078Z,-7.40
2019-01-20T05:00:23.167Z,-7.40
2019-01-20T05:02:52.133Z,-7.50
2019-01-20T05:05:21.106Z,-7.50
2019-01-20T05:07:50.038Z,-7.50
2019-01-20T05:10:19.539Z,-7.50
2019-01-20T05:12:48.529Z,-7.50
2019-01-20T05:15:19.477Z,-7.50
2019-01-20T05:17:48.354Z,-7.40
2019-01-20T05:20:19.607Z,-7.40
2019-01-20T05:22:48.580Z,-7.40
2019-01-20T05:25:17.570Z,-7.40
2019-01-20T05:27:46.675Z,-7.30
2019-01-20T05:30:18.038Z,-7.40
2019-01-20T05:32:46.968Z,-7.50
2019-01-20T05:35:15.901Z,-7.40
2019-01-20T05:37:44.880Z,-7.30
2019-01-20T05:40:17.691Z,-7.30
2019-01-20T05:42:47.006Z,-7.30
2019-01-20T05:45:18.667Z,-7.40
2019-01-20T05:47:47.577Z,-7.30
2019-01-20T05:50:17.097Z,-7.30
2019-01-20T05:52:46.114Z,-7.30
2019-01-20T05:55:16.011Z,-7.40
2019-01-20T05:57:45.043Z,-7.40
2019-01-20T06:00:19.827Z,-7.40
2019-01-20T06:02:48.719Z,-7.40
2019-01-20T06:05:17.635Z,-7.30
2019-01-20T06:07:46.612Z,-7.40
2019-01-20T06:10:15.645Z,-7.50
2019-01-20T06:12:44.586Z,-7.50
2019-01-20T06:15:15.873Z,-7.50
2019-01-20T06:17:44.833Z,-7.40
2019-01-20T06:20:14.270Z,-7.50
2019-01-20T06:22:43.334Z,-7.40
2019-01-20T06:25:12.293Z,-7.40
2019-01-20T06:27:41.222Z,-7.40
2019-01-20T06:30:24.863Z,-7.40
2019-01-20T06:32:53.950Z,-7.40
2019-01-20T06:35:22.840Z,-7.50
2019-01-20T06:37:52.027Z,-7.60
2019-01-20T06:40:21.012Z,-7.60
2019-01-20T06:42:49.911Z,-7.60
2019-01-20T06:45:18.888Z,-7.60
2019-01-20T06:47:47.795Z,-7.70
2019-01-20T06:50:18.774Z,-7.70
2019-01-20T06:52:47.722Z,-7.60
2019-01-20T06:55:16.819Z,-7.60
2019-01-20T06:57:45.784Z,-7.60
2019-01-20T07:00:16.738Z,-7.60
2019-01-20T07:02:46.571Z,-7.60
2019-01-20T07:05:15.637Z,-7.70
2019-01-20T07:07:44.990Z,-7.70
2019-01-20T07:10:15.870Z,-7.70
2019-01-20T07:12:44.777Z,-7.60
2019-01-20T07:15:19.489Z,-7.70
2019-01-20T07:17:48.604Z,-7.60
2019-01-20T07:20:17.884Z,-7.60
2019-01-20T07:22:46.987Z,-7.50
2019-01-20T07:25:15.888Z,-7.50
2019-01-20T07:27:44.776Z,-7.50
2019-01-20T07:30:16.139Z,-7.40
2019-01-20T07:32:45.012Z,-7.50
2019-01-20T07:35:14.561Z,-7.50
2019-01-20T07:37:43.800Z,-7.50
2019-01-20T07:40:15.004Z,-7.40
2019-01-20T07:42:44.268Z,-7.30
2019-01-20T07:45:14.630Z,-7.30
2019-01-20T07:47:43.710Z,-7.30
2019-01-20T07:50:20.808Z,-7.20
2019-01-20T07:52:49.717Z,-7.10
2019-01-20T07:55:18.753Z,-7.00
2019-01-20T07:57:47.911Z,-6.80
2019-01-20T08:00:22.189Z,-6.20
2019-01-20T08:02:51.113Z,-5.40
2019-01-20T08:05:20.561Z,-4.60
2019-01-20T08:07:49.703Z,-3.80
2019-01-20T08:10:24.237Z,-3.00
2019-01-20T08:12:53.166Z,-2.30
2019-01-20T08:15:22.259Z,-1.60
2019-01-20T08:17:53.716Z,-1.10
2019-01-20T08:20:24.012Z,-1.00
2019-01-20T08:22:53.013Z,-1.10
2019-01-20T08:25:22.586Z,-0.70
2019-01-20T08:27:51.477Z,-0.40
2019-01-20T08:30:22.862Z,-0.20
2019-01-20T08:32:52.031Z,0.10
2019-01-20T08:35:21.078Z,-0.40
2019-01-20T08:37:49.972Z,-0.40
2019-01-20T08:40:26.914Z,0.00
2019-01-20T08:42:55.836Z,0.40
2019-01-20T08:45:49.221Z,0.50
2019-01-20T08:48:25.132Z,0.30
2019-01-20T08:50:55.012Z,0.30
2019-01-20T08:53:23.905Z,-0.10
2019-01-20T08:55:52.836Z,-0.30
2019-01-20T08:58:22.355Z,-0.50
2019-01-20T09:00:51.277Z,-0.50
2019-01-20T09:03:20.569Z,-0.20
2019-01-20T09:05:52.234Z,0.30
2019-01-20T09:08:22.708Z,0.90
2019-01-20T09:10:51.845Z,1.20
2019-01-20T09:13:20.887Z,1.30
2019-01-20T09:15:50.080Z,1.10
2019-01-20T09:18:19.072Z,0.80
2019-01-20T09:20:48.636Z,1.20
2019-01-20T09:23:17.782Z,1.50
2019-01-20T09:25:46.676Z,2.00
2019-01-20T09:28:15.590Z,1.70
2019-01-20T09:30:45.230Z,2.00
2019-01-20T09:33:14.160Z,1.00
2019-01-20T09:35:43.284Z,0.40
2019-01-20T09:38:12.442Z,0.80
2019-01-20T09:40:41.456Z,1.30
2019-01-20T09:43:10.410Z,1.20
2019-01-20T09:45:39.845Z,0.70
2019-01-20T09:48:08.879Z,1.00
2019-01-20T09:50:37.859Z,1.00
2019-01-20T09:53:06.780Z,1.20
2019-01-20T09:55:35.684Z,1.00
2019-01-20T09:58:04.782Z,0.40
2019-01-20T10:00:35.182Z,0.80
2019-01-20T10:03:04.485Z,1.30
2019-01-20T10:05:33.360Z,1.10
2019-01-20T10:08:02.330Z,1.10
2019-01-20T10:10:31.357Z,0.80
2019-01-20T10:13:00.255Z,0.20
2019-01-20T10:15:29.260Z,0.40
2019-01-20T10:17:58.192Z,1.10
2019-01-20T10:20:31.783Z,1.30
2019-01-20T10:23:00.975Z,1.50
2019-01-20T10:25:29.872Z,1.70
2019-01-20T10:27:58.818Z,1.50
2019-01-20T10:30:36.114Z,1.20
2019-01-20T10:33:05.666Z,1.40
2019-01-20T10:35:39.114Z,1.10
2019-01-20T10:38:09.585Z,0.90
2019-01-20T10:40:38.871Z,1.00
2019-01-20T10:43:07.801Z,0.80
2019-01-20T10:45:36.930Z,1.10
2019-01-20T10:48:06.158Z,1.30
2019-01-20T10:50:37.912Z,1.00
2019-01-20T10:53:07.031Z,0.90
2019-01-20T10:55:36.712Z,1.20
2019-01-20T10:58:06.107Z,2.00
2019-01-20T11:00:37.722Z,2.80
2019-01-20T11:03:06.821Z,2.90
2019-01-20T11:05:36.022Z,2.50
2019-01-20T11:08:05.156Z,2.40
2019-01-20T11:10:34.178Z,2.00
2019-01-20T11:13:03.373Z,2.00
2019-01-20T11:15:32.256Z,2.70
2019-01-20T11:18:01.487Z,3.50
2019-01-20T11:20:30.471Z,3.80
2019-01-20T11:22:59.385Z,3.10
2019-01-20T11:25:31.084Z,3.00
2019-01-20T11:28:00.014Z,3.20
2019-01-20T11:30:29.136Z,3.70
2019-01-20T11:32:58.124Z,3.50
2019-01-20T11:35:27.216Z,3.30
2019-01-20T11:37:56.191Z,3.40
2019-01-20T11:40:25.247Z,3.80
2019-01-20T11:42:54.192Z,3.30
2019-01-20T11:45:28.539Z,3.60
2019-01-20T11:47:57.491Z,3.60
2019-01-20T11:50:26.372Z,3.50
2019-01-20T11:52:55.475Z,3.80
2019-01-20T11:55:25.132Z,3.60
2019-01-20T11:57:54.053Z,2.90
2019-01-20T12:00:28.673Z,2.20
2019-01-20T12:02:57.713Z,1.80
2019-01-20T12:05:26.973Z,2.50
2019-01-20T12:07:55.982Z,3.60
2019-01-20T12:10:25.100Z,3.80
2019-01-20T12:13:04.322Z,4.00
2019-01-20T12:15:33.220Z,3.90
2019-01-20T12:18:02.186Z,3.70
2019-01-20T12:20:31.402Z,4.10
2019-01-20T12:23:00.555Z,4.80
2019-01-20T12:25:29.672Z,4.20
2019-01-20T12:27:58.601Z,4.60
2019-01-20T12:30:30.166Z,4.80
2019-01-20T12:32:59.117Z,4.90
2019-01-20T12:35:28.155Z,5.00
2019-01-20T12:37:57.062Z,5.30
2019-01-20T12:40:37.827Z,5.10
2019-01-20T12:43:06.887Z,5.80
2019-01-20T12:45:35.827Z,5.80
2019-01-20T12:48:05.492Z,6.20
2019-01-20T12:50:35.240Z,5.20
2019-01-20T12:53:04.705Z,5.10
2019-01-20T12:55:33.585Z,4.80
2019-01-20T12:58:02.579Z,4.60
2019-01-20T13:00:31.536Z,4.20
2019-01-20T13:03:00.477Z,3.40
2019-01-20T13:05:29.431Z,4.00
2019-01-20T13:07:58.327Z,4.60
2019-01-20T13:10:27.219Z,4.10
2019-01-20T13:12:56.148Z,4.30
2019-01-20T13:15:28.488Z,4.20
2019-01-20T13:17:57.908Z,3.20
2019-01-20T13:20:27.087Z,2.60
2019-01-20T13:22:56.218Z,2.80
2019-01-20T13:25:27.214Z,3.00
2019-01-20T13:27:56.204Z,2.60
2019-01-20T13:30:27.617Z,1.60
2019-01-20T13:32:56.360Z,1.70
2019-01-20T13:35:25.628Z,1.70
2019-01-20T13:38:03.108Z,1.60
2019-01-20T13:40:44.201Z,1.60
2019-01-20T13:43:13.190Z,2.30
2019-01-20T13:45:41.820Z,2.90
2019-01-20T13:48:11.464Z,2.70
2019-01-20T13:50:40.464Z,3.10
2019-01-20T13:53:09.810Z,3.10
2019-01-20T13:55:38.580Z,3.30
2019-01-20T13:58:07.361Z,2.40
2019-01-20T14:00:36.354Z,1.80
2019-01-20T14:03:05.294Z,1.50
2019-01-20T14:05:34.165Z,1.50
2019-01-20T14:08:03.119Z,1.20
2019-01-20T14:10:31.996Z,1.00
2019-01-20T14:13:00.877Z,1.30
2019-01-20T14:15:29.835Z,0.90
2019-01-20T14:17:58.782Z,1.10
2019-01-20T14:20:28.208Z,1.00
2019-01-20T14:22:58.596Z,0.90
2019-01-20T14:25:31.204Z,0.90
2019-01-20T14:28:00.130Z,0.90
2019-01-20T14:30:33.739Z,1.00
2019-01-20T14:33:02.778Z,0.40
2019-01-20T14:35:31.875Z,-0.10
2019-01-20T14:38:00.918Z,0.30
2019-01-20T14:40:29.889Z,0.40
2019-01-20T14:43:03.172Z,0.40
2019-01-20T14:45:32.106Z,0.40
2019-01-20T14:48:01.064Z,0.30
2019-01-20T14:50:30.288Z,0.00
2019-01-20T14:53:00.315Z,0.00
2019-01-20T14:55:29.811Z,0.30
2019-01-20T14:57:59.170Z,0.40
2019-01-20T15:00:31.174Z,0.00
2019-01-20T15:03:00.150Z,-0.10
2019-01-20T15:05:29.283Z,-0.30
2019-01-20T15:07:58.189Z,-0.50
2019-01-20T15:10:27.355Z,-0.80
2019-01-20T15:12:56.624Z,-1.10
2019-01-20T15:15:28.763Z,-1.60
2019-01-20T15:17:57.830Z,-1.80
2019-01-20T15:20:26.750Z,-2.00
2019-01-20T15:22:55.723Z,-2.10
2019-01-20T15:25:25.605Z,-2.20
2019-01-20T15:27:54.673Z,-2.30
2019-01-20T15:30:26.610Z,-2.50
2019-01-20T15:32:55.694Z,-2.60
2019-01-20T15:35:24.739Z,-2.70
2019-01-20T15:37:53.927Z,-2.80
2019-01-20T15:40:25.093Z,-2.80
2019-01-20T15:42:54.123Z,-2.90
2019-01-20T15:45:24.141Z,-3.00
2019-01-20T15:47:53.144Z,-3.00
2019-01-20T15:50:30.741Z,-3.10
2019-01-20T15:52:59.781Z,-3.20
2019-01-20T15:55:29.017Z,-3.20
2019-01-20T15:57:58.036Z,-3.30
2019-01-20T16:00:32.019Z,-3.30
2019-01-20T16:03:01.384Z,-3.40
2019-01-20T16:05:30.970Z,-3.50
2019-01-20T16:08:00.440Z,-3.60
2019-01-20T16:10:29.568Z,-3.60
2019-01-20T16:12:58.763Z,-3.70
2019-01-20T16:15:30.270Z,-3.70
2019-01-20T16:17:59.590Z,-3.80
2019-01-20T16:20:29.567Z,-3.90
2019-01-20T16:22:59.209Z,-3.90
2019-01-20T16:25:31.251Z,-4.00
2019-01-20T16:28:00.882Z,-4.00
2019-01-20T16:30:32.111Z,-4.10
2019-01-20T16:33:01.394Z,-4.10
2019-01-20T16:35:30.903Z,-4.20
2019-01-20T16:38:00.668Z,-4.20
2019-01-20T16:40:30.147Z,-4.10
2019-01-20T16:42:59.112Z,-4.20
2019-01-20T16:45:42.154Z,-4.30
2019-01-20T16:48:07.892Z,-4.40
2019-01-20T16:50:37.123Z,-4.50
2019-01-20T16:53:08.200Z,-4.60
2019-01-20T16:55:37.598Z,-4.70
2019-01-20T16:58:08.496Z,-4.70
2019-01-20T17:00:39.903Z,-4.70
2019-01-20T17:03:09.095Z,-4.80
2019-01-20T17:05:38.365Z,-4.90
2019-01-20T17:08:08.140Z,-5.00
2019-01-20T17:10:39.237Z,-5.10
2019-01-20T17:13:09.208Z,-5.10
2019-01-20T17:15:41.863Z,-5.10
2019-01-20T17:18:12.283Z,-5.10
2019-01-20T17:20:41.753Z,-5.20
2019-01-20T17:23:11.166Z,-5.30
2019-01-20T17:25:40.372Z,-5.30
2019-01-20T17:28:09.694Z,-5.30
2019-01-20T17:30:39.580Z,-5.40
2019-01-20T17:33:10.349Z,-5.50
2019-01-20T17:35:39.640Z,-5.40
2019-01-20T17:38:09.254Z,-5.40
2019-01-20T17:40:38.484Z,-5.40
2019-01-20T17:43:07.806Z,-5.40
2019-01-20T17:45:46.882Z,-5.40
2019-01-20T17:48:10.321Z,-5.30
2019-01-20T17:50:41.488Z,-5.20
2019-01-20T17:53:11.023Z,-5.10
2019-01-20T17:55:40.359Z,-5.00
2019-01-20T17:58:09.687Z,-5.00
2019-01-20T18:00:40.663Z,-4.80
2019-01-20T18:03:10.572Z,-4.70
2019-01-20T18:05:39.881Z,-4.60
2019-01-20T18:08:09.162Z,-4.50
2019-01-20T18:10:38.424Z,-4.50
2019-01-20T18:13:07.649Z,-4.50
2019-01-20T18:15:38.363Z,-4.50
2019-01-20T18:18:07.551Z,-4.50
2019-01-20T18:20:36.964Z,-4.30
2019-01-20T18:23:06.413Z,-4.20
2019-01-20T18:25:35.778Z,-4.10
2019-01-20T18:28:05.437Z,-4.00
2019-01-20T18:30:34.671Z,-3.90
2019-01-20T18:33:03.923Z,-3.80
2019-01-20T18:35:33.200Z,-3.80
2019-01-20T18:38:02.372Z,-3.70
2019-01-20T18:40:31.713Z,-3.70
2019-01-20T18:43:01.194Z,-3.60
2019-01-20T18:45:34.528Z,-3.60
2019-01-20T18:48:03.958Z,-3.50
2019-01-20T18:50:37.741Z,-3.30
2019-01-20T18:53:07.426Z,-3.00
2019-01-20T18:55:36.908Z,-2.80
2019-01-20T18:58:06.576Z,-2.70
2019-01-20T19:00:41.454Z,-2.70
2019-01-20T19:03:10.481Z,-2.70
2019-01-20T19:05:39.866Z,-2.80
2019-01-20T19:08:10.706Z,-2.80
2019-01-20T19:10:41.335Z,-2.90
2019-01-20T19:13:10.599Z,-2.90
2019-01-20T19:15:39.764Z,-2.90
2019-01-20T19:18:09.684Z,-2.90
2019-01-20T19:20:38.746Z,-2.90
2019-01-20T19:23:07.872Z,-2.90
2019-01-20T19:25:37.119Z,-2.90
2019-01-20T19:28:06.452Z,-2.90
2019-01-20T19:30:36.553Z,-3.00
2019-01-20T19:33:06.919Z,-2.90
2019-01-20T19:35:36.134Z,-2.90
2019-01-20T19:38:06.067Z,-2.80
2019-01-20T19:40:35.392Z,-2.70
2019-01-20T19:43:04.830Z,-2.70
2019-01-20T19:45:34.088Z,-2.70
2019-01-20T19:48:03.361Z,-2.80
2019-01-20T19:50:32.577Z,-2.80
2019-01-20T19:53:01.800Z,-2.80
2019-01-20T19:55:32.058Z,-2.80
2019-01-20T19:58:01.397Z,-2.80
2019-01-20T20:00:32.391Z,-2.80
2019-01-20T20:03:01.587Z,-2.70
2019-01-20T20:05:31.247Z,-2.70
2019-01-20T20:08:00.877Z,-2.60
2019-01-20T20:10:30.001Z,-2.60
2019-01-20T20:12:59.508Z,-2.70
2019-01-20T20:15:29.046Z,-2.70
2019-01-20T20:17:59.459Z,-2.80
2019-01-20T20:20:28.799Z,-2.70
2019-01-20T20:22:59.691Z,-2.70
2019-01-20T20:25:28.991Z,-2.80
2019-01-20T20:27:58.057Z,-2.80
2019-01-20T20:30:35.068Z,-2.80
2019-01-20T20:33:04.492Z,-2.80
2019-01-20T20:35:33.606Z,-2.70
2019-01-20T20:38:02.872Z,-2.70
2019-01-20T20:40:32.356Z,-2.60
2019-01-20T20:43:01.833Z,-2.60
2019-01-20T20:45:31.211Z,-2.70
2019-01-20T20:48:00.553Z,-2.70
2019-01-20T20:50:29.856Z,-2.80
2019-01-20T20:52:58.925Z,-2.80
2019-01-20T20:55:28.158Z,-2.80
2019-01-20T20:57:57.605Z,-2.70
2019-01-20T21:00:29.477Z,-2.60
2019-01-20T21:02:59.769Z,-2.50
2019-01-20T21:05:28.910Z,-2.50
2019-01-20T21:07:58.008Z,-2.50
2019-01-20T21:10:27.278Z,-2.60
2019-01-20T21:12:56.382Z,-2.50
2019-01-20T21:15:25.491Z,-2.40
2019-01-20T21:17:54.704Z,-2.40
2019-01-20T21:20:24.178Z,-2.50
2019-01-20T21:22:53.924Z,-2.60
2019-01-20T21:25:23.099Z,-2.70
2019-01-20T21:27:52.556Z,-2.70
2019-01-20T21:30:24.349Z,-2.70
2019-01-20T21:32:53.688Z,-2.50
2019-01-20T21:35:23.175Z,-2.40
2019-01-20T21:37:52.411Z,-2.50
2019-01-20T21:40:21.849Z,-2.50
2019-01-20T21:42:51.057Z,-2.50
2019-01-20T21:45:20.303Z,-2.40
2019-01-20T21:47:49.482Z,-2.50
2019-01-20T21:50:26.539Z,-2.40
2019-01-20T21:52:55.810Z,-2.40
2019-01-20T21:55:24.920Z,-2.40
2019-01-20T21:57:53.963Z,-2.40
2019-01-20T22:00:27.597Z,-2.50
2019-01-20T22:02:56.680Z,-2.50
2019-01-20T22:05:25.603Z,-2.50
2019-01-20T22:07:54.501Z,-2.50
2019-01-20T22:10:24.626Z,-2.50
2019-01-20T22:12:53.673Z,-2.50
2019-01-20T22:15:22.937Z,-2.40
2019-01-20T22:17:52.241Z,-2.40
2019-01-20T22:20:22.584Z,-2.40
2019-01-20T22:22:51.973Z,-2.30
2019-01-20T22:25:21.490Z,-2.20
2019-01-20T22:27:50.380Z,-2.20
2019-01-20T22:30:21.289Z,-2.10
2019-01-20T22:32:50.256Z,-2.10
2019-01-20T22:35:19.276Z,-2.20
2019-01-20T22:37:48.193Z,-2.20
2019-01-20T22:40:19.103Z,-2.30
2019-01-20T22:42:48.079Z,-2.20
2019-01-20T22:45:23.250Z,-2.20
2019-01-20T22:47:52.569Z,-2.30
2019-01-20T22:50:21.468Z,-2.40
2019-01-20T22:52:50.356Z,-2.40
2019-01-20T22:55:19.483Z,-2.40
2019-01-20T22:57:48.415Z,-2.40
2019-01-20T23:00:48.537Z,-2.50
2019-01-20T23:03:17.664Z,-2.50
2019-01-20T23:05:46.889Z,-2.50
2019-01-20T23:08:15.996Z,-2.60
2019-01-20T23:10:45.095Z,-2.50
2019-01-20T23:13:14.074Z,-2.50
2019-01-20T23:15:43.328Z,-2.60
2019-01-20T23:18:12.261Z,-2.80
2019-01-20T23:20:41.178Z,-3.00
2019-01-20T23:23:10.078Z,-3.10
2019-01-20T23:25:39.225Z,-3.30
2019-01-20T23:28:08.105Z,-3.40
2019-01-20T23:30:37.066Z,-3.60
2019-01-20T23:33:06.077Z,-3.70
2019-01-20T23:35:34.986Z,-3.90
2019-01-20T23:38:04.271Z,-4.10
2019-01-20T23:40:33.798Z,-4.40
2019-01-20T23:43:02.764Z,-4.60
2019-01-20T23:45:31.737Z,-4.70
2019-01-20T23:48:00.597Z,-4.90
2019-01-20T23:50:29.543Z,-5.00
2019-01-20T23:52:58.439Z,-5.10
2019-01-20T23:55:27.393Z,-5.10
2019-01-20T23:57:56.277Z,-5.10
